createdAt,value
2018-05-16T00:00:54.986Z,20.23
2018-05-16T00:05:55.967Z,20.33
2018-05-16T00:10:56.999Z,20.41
2018-05-16T00:15:57.988Z,20.46
2018-05-16T00:20:58.979Z,20.24
2018-05-16T00:25:59.974Z,19.71
2018-05-16T00:31:00.947Z,19.64
2018-05-16T00:36:01.938Z,19.40
2018-05-16T00:41:02.913Z,19.24
2018-05-16T00:46:03.894Z,19.22
2018-05-16T00:51:17.217Z,19.11
2018-05-16T00:56:18.170Z,19.01
2018-05-16T01:01:19.192Z,18.94
2018-05-16T01:06:20.179Z,18.89
2018-05-16T01:11:21.168Z,18.80
2018-05-16T01:16:22.141Z,18.78
2018-05-16T01:21:23.138Z,18.76
2018-05-16T01:26:24.107Z,18.70
2018-05-16T01:31:25.091Z,18.74
2018-05-16T01:36:26.081Z,18.63
2018-05-16T01:41:27.052Z,18.73
2018-05-16T01:46:28.017Z,18.74
2018-05-16T01:51:29.002Z,18.61
2018-05-16T01:56:29.989Z,18.66
2018-05-16T02:01:30.952Z,19.00
2018-05-16T02:06:31.917Z,19.07
2018-05-16T02:11:32.911Z,18.99
2018-05-16T02:16:33.884Z,18.85
2018-05-16T02:21:34.857Z,18.85
2018-05-16T02:26:35.844Z,18.92
2018-05-16T02:31:43.683Z,18.83
2018-05-16T02:36:44.691Z,18.93
2018-05-16T02:41:45.606Z,19.13
2018-05-16T02:46:46.568Z,19.32
2018-05-16T02:51:47.578Z,19.23
2018-05-16T02:56:48.556Z,19.01
2018-05-16T03:01:49.590Z,18.95
2018-05-16T03:06:50.592Z,18.79
2018-05-16T03:11:51.754Z,18.79
2018-05-16T03:16:52.760Z,18.92
2018-05-16T03:21:53.714Z,18.90
2018-05-16T03:26:54.686Z,18.90
2018-05-16T03:31:55.648Z,18.78
2018-05-16T03:36:56.625Z,18.82
2018-05-16T03:41:57.589Z,18.88
2018-05-16T03:46:58.562Z,18.66
2018-05-16T03:51:59.560Z,18.44
2018-05-16T03:57:00.540Z,18.32
2018-05-16T04:02:13.784Z,18.39
2018-05-16T04:07:14.746Z,18.53
2018-05-16T04:12:15.768Z,18.83
2018-05-16T04:17:16.729Z,18.97
2018-05-16T04:22:17.725Z,18.96
2018-05-16T04:27:18.740Z,19.08
2018-05-16T04:32:19.737Z,19.11
2018-05-16T04:37:20.738Z,18.95
2018-05-16T04:42:21.702Z,18.84
2018-05-16T04:47:22.666Z,18.96
2018-05-16T04:52:23.647Z,19.00
2018-05-16T04:57:24.628Z,18.90
2018-05-16T05:02:25.588Z,18.84
2018-05-16T05:07:26.565Z,18.85
2018-05-16T05:12:27.568Z,18.79
2018-05-16T05:17:28.549Z,18.99
2018-05-16T05:22:29.564Z,19.01
2018-05-16T05:27:30.561Z,19.02
2018-05-16T05:32:31.550Z,19.17
2018-05-16T05:37:32.516Z,19.21
2018-05-16T05:42:33.489Z,19.42
2018-05-16T05:47:34.465Z,19.61
2018-05-16T05:52:35.446Z,19.74
2018-05-16T05:57:36.444Z,20.07
2018-05-16T06:02:37.414Z,20.23
2018-05-16T06:07:38.363Z,20.38
2018-05-16T06:12:39.405Z,20.70
2018-05-16T06:17:40.387Z,21.14
2018-05-16T06:22:41.375Z,21.42
2018-05-16T06:27:42.359Z,21.63
2018-05-16T06:32:43.424Z,21.73
2018-05-16T06:37:44.384Z,21.78
2018-05-16T06:42:45.345Z,21.93
2018-05-16T06:47:46.314Z,21.96
2018-05-16T06:52:47.357Z,22.09
2018-05-16T06:57:48.353Z,22.24
2018-05-16T07:02:49.323Z,21.97
2018-05-16T07:07:50.323Z,22.00
2018-05-16T07:12:51.408Z,21.98
2018-05-16T07:17:52.393Z,22.07
2018-05-16T07:22:53.380Z,22.18
2018-05-16T07:27:54.360Z,22.06
2018-05-16T07:32:55.390Z,22.31
2018-05-16T07:37:56.390Z,22.31
2018-05-16T07:42:57.376Z,22.11
2018-05-16T07:47:58.426Z,22.16
2018-05-16T07:52:59.453Z,22.55
2018-05-16T07:58:00.449Z,22.42
2018-05-16T08:03:01.425Z,22.21
2018-05-16T08:08:02.457Z,22.10
2018-05-16T08:13:03.476Z,22.18
2018-05-16T08:18:04.488Z,22.39
2018-05-16T08:23:05.469Z,22.53
2018-05-16T08:28:07.094Z,22.56
2018-05-16T08:33:08.067Z,22.69
2018-05-16T08:38:09.018Z,22.73
2018-05-16T08:43:09.983Z,22.46
2018-05-16T08:48:10.979Z,22.41
2018-05-16T08:53:11.952Z,22.19
2018-05-16T08:58:13.107Z,22.60
2018-05-16T09:03:14.153Z,22.93
2018-05-16T09:08:15.148Z,22.80
2018-05-16T09:13:16.168Z,23.01
2018-05-16T09:18:17.137Z,22.72
2018-05-16T09:23:18.113Z,22.94
2018-05-16T09:28:19.184Z,23.12
2018-05-16T09:43:00.175Z,23.47
2018-05-16T09:48:01.143Z,23.37
2018-05-16T09:53:02.168Z,23.54
2018-05-16T09:58:04.173Z,23.95
2018-05-16T10:03:05.163Z,24.09
2018-05-16T10:08:06.130Z,24.17
2018-05-16T10:13:07.160Z,24.24
2018-05-16T10:18:08.211Z,24.07
2018-05-16T10:23:09.280Z,24.15
2018-05-16T10:28:10.289Z,24.02
2018-05-16T10:33:11.290Z,24.25
2018-05-16T10:38:12.275Z,24.75
2018-05-16T10:43:13.261Z,24.85
2018-05-16T10:48:21.115Z,24.84
2018-05-16T10:53:22.093Z,25.27
2018-05-16T10:58:23.083Z,25.60
2018-05-16T11:03:24.091Z,26.11
2018-05-16T11:08:25.068Z,26.28
2018-05-16T11:13:26.027Z,26.55
2018-05-16T11:18:27.052Z,26.61
2018-05-16T11:23:28.012Z,26.92
2018-05-16T11:28:29.935Z,27.35
2018-05-16T11:33:30.938Z,27.72
2018-05-16T11:38:31.900Z,27.63
2018-05-16T11:43:32.905Z,26.55
2018-05-16T11:48:33.882Z,27.06
2018-05-16T11:53:34.904Z,28.03
2018-05-16T11:58:35.881Z,28.06
2018-05-16T12:03:36.858Z,28.05
2018-05-16T12:08:37.897Z,28.81
2018-05-16T12:13:38.895Z,29.00
2018-05-16T12:18:39.934Z,27.35
2018-05-16T12:23:40.913Z,28.44
2018-05-16T12:28:41.890Z,29.10
2018-05-16T12:33:42.881Z,29.56
2018-05-16T12:38:43.869Z,27.86
2018-05-16T12:43:44.885Z,26.84
2018-05-16T12:48:45.883Z,26.20
2018-05-16T12:53:46.899Z,25.83
2018-05-16T12:58:47.951Z,26.38
2018-05-16T13:03:48.974Z,26.04
2018-05-16T13:08:50.084Z,25.65
2018-05-16T13:13:51.005Z,25.53
2018-05-16T13:18:52.046Z,25.40
2018-05-16T13:23:53.043Z,25.03
2018-05-16T13:28:54.035Z,24.73
2018-05-16T13:33:55.035Z,25.19
2018-05-16T13:38:56.064Z,25.36
2018-05-16T13:43:57.135Z,25.65
2018-05-16T13:48:58.162Z,25.69
2018-05-16T13:53:59.176Z,25.75
2018-05-16T13:59:00.174Z,25.27
2018-05-16T14:04:01.172Z,24.75
2018-05-16T14:09:02.192Z,24.48
2018-05-16T14:14:03.201Z,24.38
2018-05-16T14:19:04.255Z,23.90
2018-05-16T14:24:05.245Z,24.25
2018-05-16T14:29:06.236Z,24.61
2018-05-16T14:34:07.228Z,24.55
2018-05-16T14:39:08.246Z,24.49
2018-05-16T14:44:09.287Z,26.65
2018-05-16T14:49:10.291Z,28.11
2018-05-16T14:54:11.277Z,28.79
2018-05-16T14:59:12.308Z,28.28
2018-05-16T15:04:13.334Z,27.71
2018-05-16T15:09:14.349Z,28.59
2018-05-16T15:14:15.339Z,27.66
2018-05-16T15:19:16.397Z,27.77
2018-05-16T15:24:17.407Z,27.72
2018-05-16T15:29:18.392Z,27.28
2018-05-16T15:34:19.379Z,26.70
2018-05-16T15:39:20.368Z,26.32
2018-05-16T15:44:21.352Z,26.02
2018-05-16T15:49:22.324Z,25.93
2018-05-16T15:54:23.324Z,25.76
2018-05-16T15:59:24.333Z,25.49
2018-05-16T16:04:25.352Z,25.26
2018-05-16T16:09:26.372Z,25.20
2018-05-16T16:14:27.383Z,25.17
2018-05-16T16:19:28.423Z,25.32
2018-05-16T16:24:29.414Z,25.18
2018-05-16T16:29:30.439Z,25.10
2018-05-16T16:34:31.464Z,25.06
2018-05-16T16:39:32.451Z,25.53
2018-05-16T16:44:33.481Z,26.10
2018-05-16T16:49:34.502Z,26.59
2018-05-16T16:54:35.517Z,26.85
2018-05-16T16:59:36.536Z,27.37
2018-05-16T17:04:37.650Z,27.43
2018-05-16T17:09:38.572Z,27.33
2018-05-16T17:14:39.597Z,27.19
2018-05-16T17:19:40.662Z,26.49
2018-05-16T17:24:41.679Z,25.89
2018-05-16T17:29:42.703Z,25.53
2018-05-16T17:34:43.723Z,25.16
2018-05-16T17:39:44.787Z,24.97
2018-05-16T17:44:45.861Z,25.04
2018-05-16T17:49:46.900Z,25.39
2018-05-16T17:54:47.922Z,25.44
2018-05-16T17:59:48.949Z,25.37
2018-05-16T18:04:50.756Z,24.95
2018-05-16T18:09:51.773Z,24.65
2018-05-16T18:15:11.988Z,24.26
2018-05-16T18:20:13.024Z,24.00
2018-05-16T18:25:14.026Z,23.78
2018-05-16T18:30:15.058Z,23.60
2018-05-16T18:35:16.025Z,23.44
2018-05-16T18:40:17.040Z,23.36
2018-05-16T18:45:18.059Z,23.06
2018-05-16T18:50:19.100Z,22.79
2018-05-16T18:55:20.124Z,22.48
2018-05-16T19:00:21.169Z,22.42
2018-05-16T19:05:22.187Z,22.09
2018-05-16T19:10:23.219Z,21.99
2018-05-16T19:15:24.268Z,21.61
2018-05-16T19:20:25.341Z,21.31
2018-05-16T19:25:26.381Z,21.23
2018-05-16T19:30:27.387Z,21.01
2018-05-16T19:35:28.439Z,20.90
2018-05-16T19:40:29.534Z,20.60
2018-05-16T19:45:30.515Z,20.46
2018-05-16T19:50:31.579Z,20.31
2018-05-16T19:55:32.669Z,20.18
2018-05-16T20:00:33.696Z,19.81
2018-05-16T20:05:34.754Z,19.75
2018-05-16T20:10:35.819Z,19.72
2018-05-16T20:15:36.827Z,19.67
2018-05-16T20:20:39.612Z,19.69
2018-05-16T20:25:42.248Z,19.60
2018-05-16T20:30:44.559Z,19.51
2018-05-16T20:35:46.359Z,19.35
2018-05-16T20:40:47.451Z,19.31
2018-05-16T20:45:48.524Z,19.23
2018-05-16T20:50:49.580Z,19.14
2018-05-16T20:55:53.576Z,18.90
2018-05-16T21:00:54.604Z,18.66
2018-05-16T21:05:55.577Z,18.38
2018-05-16T21:10:56.589Z,18.43
2018-05-16T21:15:57.585Z,18.23
2018-05-16T21:20:58.607Z,17.92
2018-05-16T21:25:59.646Z,17.98
2018-05-16T21:31:00.613Z,18.15
2018-05-16T21:36:01.582Z,18.18
2018-05-16T21:41:02.611Z,17.86
2018-05-16T21:46:03.608Z,17.83
2018-05-16T21:51:04.589Z,17.59
2018-05-16T21:56:05.607Z,17.55
2018-05-16T22:01:06.575Z,17.60
2018-05-16T22:06:07.599Z,17.54
2018-05-16T22:11:08.575Z,17.35
2018-05-16T22:16:09.636Z,17.23
2018-05-16T22:21:10.654Z,16.99
2018-05-16T22:26:11.645Z,16.61
2018-05-16T22:31:18.683Z,16.53
2018-05-16T22:36:25.752Z,16.25
2018-05-16T22:41:32.804Z,16.20
2018-05-16T22:46:33.863Z,16.17
2018-05-16T22:51:34.841Z,16.10
2018-05-16T22:56:35.819Z,16.00
2018-05-16T23:01:36.825Z,15.80
2018-05-16T23:06:37.808Z,15.77
2018-05-16T23:11:38.781Z,15.61
2018-05-16T23:16:39.749Z,15.26
2018-05-16T23:21:40.731Z,14.94
2018-05-16T23:26:41.716Z,14.84
2018-05-16T23:31:42.689Z,14.64
2018-05-16T23:36:43.653Z,14.65
2018-05-16T23:41:44.642Z,14.80
2018-05-16T23:46:45.624Z,14.81
2018-05-16T23:51:46.605Z,14.59
2018-05-16T23:56:47.564Z,14.58
